Time;durP1;ratioP1;P1;durP2;ratioP2;P2;SDS_P1;SDS_P2;PMS_P1;PMS_P2;Temp;Humidity;BMP_temperature;BMP_pressure;BME280_temperature;BME280_humidity;BME280_pressure;Samples;Min_cycle;Max_cycle;Signal;HPM_P1;HPM_P2
2023/03/22 00:01:45;;;;;;;;;;;;;;;6.54;100.00;99510.75;5093192;28;848;-58
2023/03/22 00:04:12;;;;;;;;;;;;;;;6.54;100.00;99505.25;5093001;28;1252;-57
2023/03/22 00:06:39;;;;;;;;;;;;;;;6.53;100.00;99500.94;5093274;28;839;-58
2023/03/22 00:09:06;;;;;;;;;;;;;;;6.56;100.00;99504.88;5093297;28;1029;-58
2023/03/22 00:11:33;;;;;;;;;;;;;;;6.58;100.00;99503.31;5092534;28;1449;-58
2023/03/22 00:14:00;;;;;;;;;;;;;;;6.57;100.00;99498.97;5092817;28;855;-58
2023/03/22 00:16:27;;;;;;;;;;;;;;;6.64;100.00;99501.00;5092746;28;1909;-58
2023/03/22 00:18:54;;;;;;;;;;;;;;;6.67;100.00;99505.72;5092821;28;875;-58
2023/03/22 00:21:22;;;;;;;;;;;;;;;6.74;100.00;99508.50;5092607;28;1114;-58
2023/03/22 00:23:49;;;;;;;;;;;;;;;6.79;100.00;99502.66;5092747;28;823;-58
2023/03/22 00:26:15;;;;;;;;;;;;;;;6.77;100.00;99502.25;5092621;28;870;-58
2023/03/22 00:28:41;;;;;;;;;;;;;;;6.79;100.00;99504.63;5092670;28;808;-58
2023/03/22 00:31:08;;;;;;;;;;;;;;;6.73;100.00;99502.22;5092539;28;891;-58
2023/03/22 00:33:35;;;;;;;;;;;;;;;6.65;100.00;99492.38;5092552;28;918;-59
2023/03/22 00:36:06;;;;;;;;;;;;;;;6.57;100.00;99482.50;5092429;28;840;-58
2023/03/22 00:38:38;;;;;;;;;;;;;;;6.51;100.00;99484.06;5092404;28;1917;-58
2023/03/22 00:41:15;;;;;;;;;;;;;;;6.49;100.00;99481.69;5092655;28;879;-58
2023/03/22 00:43:43;;;;;;;;;;;;;;;6.49;100.00;99481.69;5092373;28;895;-58
2023/03/22 00:46:10;;;;;;;;;;;;;;;6.51;100.00;99478.56;5092342;28;819;-58
2023/03/22 00:48:37;;;;;;;;;;;;;;;6.51;100.00;99486.81;5092303;28;812;-58
2023/03/22 00:51:04;;;;;;;;;;;;;;;6.49;100.00;99487.19;5092442;28;860;-57
2023/03/22 00:53:35;;;;;;;;;;;;;;;6.49;100.00;99491.91;5092193;28;820;-58
2023/03/22 00:56:02;;;;;;;;;;;;;;;6.48;100.00;99490.31;5092083;28;883;-58
2023/03/22 00:58:29;;;;;;;;;;;;;;;6.51;100.00;99492.31;5092040;28;1961;-58
2023/03/22 01:00:55;;;;;;;;;;;;;;;6.55;100.00;99495.88;5092114;28;804;-58
2023/03/22 01:03:21;;;;;;;;;;;;;;;6.59;100.00;99490.38;5091971;28;864;-58
2023/03/22 01:05:50;;;;;;;;;;;;;;;6.62;100.00;99484.91;5092063;28;859;-56
2023/03/22 01:08:17;;;;;;;;;;;;;;;6.66;100.00;99476.69;5091880;28;981;-58
2023/03/22 01:10:44;;;;;;;;;;;;;;;6.70;100.00;99469.25;5091678;28;1169;-58
2023/03/22 01:13:11;;;;;;;;;;;;;;;6.70;100.00;99459.06;5091885;28;926;-58
2023/03/22 01:15:38;;;;;;;;;;;;;;;6.68;100.00;99444.16;5091930;28;832;-58
2023/03/22 01:18:04;;;;;;;;;;;;;;;6.64;100.00;99435.88;5091773;28;1941;-58
2023/03/22 01:20:31;;;;;;;;;;;;;;;6.70;100.00;99430.78;5092036;28;887;-58
2023/03/22 01:22:58;;;;;;;;;;;;;;;6.71;100.00;99435.91;5091992;28;859;-58
2023/03/22 01:25:24;;;;;;;;;;;;;;;6.78;100.00;99435.16;5090899;28;879;-58
2023/03/22 01:27:51;;;;;;;;;;;;;;;6.83;100.00;99429.31;5091713;28;874;-58
2023/03/22 01:30:17;;;;;;;;;;;;;;;6.99;100.00;99428.19;5091558;28;860;-59
2023/03/22 01:32:44;;;;;;;;;;;;;;;7.05;100.00;99427.41;5091668;28;899;-58
2023/03/22 01:35:11;;;;;;;;;;;;;;;7.03;100.00;99427.00;5091612;28;886;-58
2023/03/22 01:37:37;;;;;;;;;;;;;;;7.02;100.00;99425.44;5091481;28;1893;-58
2023/03/22 01:40:05;;;;;;;;;;;;;;;6.92;100.00;99424.22;5091547;28;918;-58
2023/03/22 01:42:31;;;;;;;;;;;;;;;6.83;100.00;99432.06;5091644;28;910;-58
2023/03/22 01:45:13;;;;;;;;;;;;;;;6.75;100.00;99444.19;5091519;28;864;-58
2023/03/22 01:47:42;;;;;;;;;;;;;;;6.77;100.00;99449.28;5091623;28;816;-58
2023/03/22 01:50:08;;;;;;;;;;;;;;;6.82;100.00;99446.94;5091525;28;890;-58
2023/03/22 01:52:36;;;;;;;;;;;;;;;6.82;100.00;99448.91;5091330;28;902;-58
2023/03/22 01:55:05;;;;;;;;;;;;;;;6.83;100.00;99444.97;5091361;28;847;-58
2023/03/22 01:57:32;;;;;;;;;;;;;;;6.82;100.00;99451.66;5091263;28;1952;-58
2023/03/22 01:59:59;;;;;;;;;;;;;;;6.74;100.00;99450.81;5091382;28;800;-58
2023/03/22 02:02:29;;;;;;;;;;;;;;;6.80;100.00;99454.00;5091684;28;808;-59
2023/03/22 02:04:56;;;;;;;;;;;;;;;6.82;100.00;99459.91;5073143;28;1322;-58
2023/03/22 02:07:26;;;;;;;;;;;;;;;6.72;100.00;99455.91;5091300;28;851;-58
2023/03/22 02:09:53;;;;;;;;;;;;;;;6.68;100.00;99450.44;5091425;28;1402;-58
2023/03/22 02:12:43;;;;;;;;;;;;;;;6.66;100.00;99454.72;5073020;28;1298;-58
2023/03/22 02:15:16;;;;;;;;;;;;;;;6.64;100.00;99459.81;5091220;28;807;-58
2023/03/22 02:18:05;;;;;;;;;;;;;;;6.62;100.00;99446.47;5072936;28;1913;-58
2023/03/22 02:20:45;;;;;;;;;;;;;;;6.64;100.00;99455.09;5091459;28;843;-58
2023/03/22 02:23:18;;;;;;;;;;;;;;;6.66;100.00;99463.75;5073149;28;816;-58
2023/03/22 02:25:48;;;;;;;;;;;;;;;6.70;100.00;99466.50;5091148;28;816;-58
2023/03/22 02:28:14;;;;;;;;;;;;;;;6.71;100.00;99448.84;5091268;28;823;-58
2023/03/22 02:30:59;;;;;;;;;;;;;;;6.61;100.00;99460.56;5091582;28;800;-59
2023/03/22 02:33:51;;;;;;;;;;;;;;;6.52;100.00;99461.69;5091193;28;895;-58
2023/03/22 02:36:18;;;;;;;;;;;;;;;6.45;100.00;99458.13;5093758;28;1889;-58
2023/03/22 02:39:20;;;;;;;;;;;;;;;6.41;100.00;99466.34;5094998;28;871;-59
2023/03/22 02:42:05;;;;;;;;;;;;;;;6.38;100.00;99458.06;5012597;28;1146;-59
2023/03/22 02:44:32;;;;;;;;;;;;;;;6.38;100.00;99449.84;5089129;28;990;-58
2023/03/22 02:47:08;;;;;;;;;;;;;;;6.37;100.00;99451.03;5094590;28;878;-59
2023/03/22 02:49:44;;;;;;;;;;;;;;;6.34;100.00;99450.63;5094607;28;824;-58
2023/03/22 02:52:16;;;;;;;;;;;;;;;6.33;100.00;99449.03;5094452;28;836;-59
2023/03/22 02:54:46;;;;;;;;;;;;;;;6.31;100.00;99440.38;5094654;28;819;-59
2023/03/22 02:57:36;;;;;;;;;;;;;;;6.34;100.00;99439.63;5076102;28;2197;-58
2023/03/22 03:00:09;;;;;;;;;;;;;;;6.36;100.00;99439.25;5083713;28;1109;-58
2023/03/22 03:02:37;;;;;;;;;;;;;;;6.34;100.00;99427.88;5094409;28;878;-59
2023/03/22 03:05:04;;;;;;;;;;;;;;;6.32;100.00;99416.50;5094318;28;851;-58
2023/03/22 03:07:30;;;;;;;;;;;;;;;6.43;100.00;99416.56;5094239;28;878;-58
2023/03/22 03:09:57;;;;;;;;;;;;;;;6.49;100.00;99410.31;5094280;28;1167;-59
2023/03/22 03:12:25;;;;;;;;;;;;;;;6.58;100.00;99400.94;5094401;28;811;-59
2023/03/22 03:14:52;;;;;;;;;;;;;;;6.65;100.00;99396.25;5075993;28;1302;-58
2023/03/22 03:17:19;;;;;;;;;;;;;;;6.88;100.00;99393.19;5094086;28;1914;-58
2023/03/22 03:20:00;;;;;;;;;;;;;;;7.04;100.00;99389.31;5075874;28;896;-58
2023/03/22 03:22:32;;;;;;;;;;;;;;;7.19;100.00;99384.66;5075597;28;1295;-58
2023/03/22 03:25:09;;;;;;;;;;;;;;;7.19;100.00;99392.88;5094134;28;910;-58
2023/03/22 03:27:43;;;;;;;;;;;;;;;7.24;100.00;99398.03;5093831;28;871;-58
2023/03/22 03:30:12;;;;;;;;;;;;;;;7.36;100.00;99390.19;5075690;28;918;-59
2023/03/22 03:32:45;;;;;;;;;;;;;;;7.50;100.00;99402.38;5094038;28;815;-58
2023/03/22 03:35:31;;;;;;;;;;;;;;;7.47;100.00;99412.19;5093719;28;867;-58
2023/03/22 03:38:07;;;;;;;;;;;;;;;7.50;100.00;99418.88;5075434;28;1906;-59
2023/03/22 03:40:54;;;;;;;;;;;;;;;7.48;100.00;99415.72;5093576;28;847;-58
2023/03/22 03:43:21;;;;;;;;;;;;;;;7.39;100.00;99418.88;5093359;28;1323;-58
2023/03/22 03:45:50;;;;;;;;;;;;;;;7.41;100.00;99423.97;5093426;28;981;-58
2023/03/22 03:48:21;;;;;;;;;;;;;;;7.38;100.00;99428.28;5092656;28;866;-59
2023/03/22 03:50:51;;;;;;;;;;;;;;;7.36;100.00;99434.19;5093687;28;945;-58
2023/03/22 03:53:17;;;;;;;;;;;;;;;7.34;100.00;99425.53;5093499;28;851;-58
2023/03/22 03:55:44;;;;;;;;;;;;;;;7.34;100.00;99431.03;5094040;28;807;-58
2023/03/22 03:58:10;;;;;;;;;;;;;;;7.40;100.00;99428.66;5093157;28;1944;-58
2023/03/22 04:00:37;;;;;;;;;;;;;;;7.40;100.00;99442.41;5093157;28;910;-58
2023/03/22 04:03:04;;;;;;;;;;;;;;;7.41;100.00;99437.72;5093119;28;918;-58
2023/03/22 04:05:31;;;;;;;;;;;;;;;7.41;100.00;99437.72;5093426;28;823;-58
2023/03/22 04:07:57;;;;;;;;;;;;;;;7.40;100.00;99439.66;5092970;28;882;-58
2023/03/22 04:10:24;;;;;;;;;;;;;;;7.36;100.00;99436.94;5092695;28;1216;-58
2023/03/22 04:12:50;;;;;;;;;;;;;;;7.36;100.00;99441.63;5092907;28;816;-58
2023/03/22 04:15:17;;;;;;;;;;;;;;;7.33;100.00;99440.44;5092856;28;918;-58
2023/03/22 04:17:45;;;;;;;;;;;;;;;7.32;100.00;99447.13;5092785;28;1910;-58
2023/03/22 04:20:12;;;;;;;;;;;;;;;7.37;100.00;99440.47;5092833;28;819;-58
2023/03/22 04:22:40;;;;;;;;;;;;;;;7.34;100.00;99447.53;5092675;28;831;-58
2023/03/22 04:25:10;;;;;;;;;;;;;;;7.30;100.00;99449.47;5092651;28;792;-58
2023/03/22 04:27:38;;;;;;;;;;;;;;;7.29;100.00;99452.63;5092888;28;839;-58
2023/03/22 04:30:05;;;;;;;;;;;;;;;7.27;100.00;99453.00;5092661;28;827;-58
2023/03/22 04:32:32;;;;;;;;;;;;;;;7.31;100.00;99442.78;5091105;28;1319;-58
2023/03/22 04:34:58;;;;;;;;;;;;;;;7.44;100.00;99443.22;5092631;28;859;-58
2023/03/22 04:37:25;;;;;;;;;;;;;;;7.46;100.00;99456.59;5092609;28;1943;-58
2023/03/22 04:39:52;;;;;;;;;;;;;;;7.43;100.00;99455.41;5092552;28;851;-58
2023/03/22 04:42:19;;;;;;;;;;;;;;;7.43;100.00;99455.41;5092555;28;878;-58
2023/03/22 04:44:46;;;;;;;;;;;;;;;7.42;100.00;99456.56;5092596;28;824;-58
2023/03/22 04:47:12;;;;;;;;;;;;;;;7.39;100.00;99464.81;5092471;28;887;-58
2023/03/22 04:49:39;;;;;;;;;;;;;;;7.36;100.00;99471.88;5092615;28;811;-58
2023/03/22 04:52:07;;;;;;;;;;;;;;;7.35;100.00;99473.06;5092412;28;803;-59
2023/03/22 04:54:33;;;;;;;;;;;;;;;7.38;100.00;99479.72;5092570;28;796;-58
2023/03/22 04:57:00;;;;;;;;;;;;;;;7.42;100.00;99475.03;5092357;28;1989;-58
2023/03/22 04:59:26;;;;;;;;;;;;;;;7.44;100.00;99489.97;5092414;28;1267;-58
2023/03/22 05:01:54;;;;;;;;;;;;;;;7.42;100.00;99497.81;5092416;28;823;-58
2023/03/22 05:04:20;;;;;;;;;;;;;;;7.31;100.00;99508.00;5092497;28;878;-58
2023/03/22 05:06:47;;;;;;;;;;;;;;;7.18;100.00;99506.78;5092879;28;768;-58
2023/03/22 05:09:14;;;;;;;;;;;;;;;7.13;100.00;99513.44;5092189;28;1393;-58
2023/03/22 05:11:41;;;;;;;;;;;;;;;7.16;100.00;99526.38;5091776;28;1273;-59
2023/03/22 05:14:08;;;;;;;;;;;;;;;7.22;100.00;99538.59;5092208;28;859;-59
2023/03/22 05:16:35;;;;;;;;;;;;;;;7.25;100.00;99535.06;5092394;28;1959;-58
2023/03/22 05:19:02;;;;;;;;;;;;;;;7.16;100.00;99537.38;5092087;28;864;-58
2023/03/22 05:21:35;;;;;;;;;;;;;;;7.12;100.00;99540.09;5091666;28;934;-58
2023/03/22 05:24:02;;;;;;;;;;;;;;;7.19;100.00;99538.56;5091754;28;868;-59
2023/03/22 05:26:28;;;;;;;;;;;;;;;7.26;100.00;99533.91;5091711;28;815;-58
2023/03/22 05:28:56;;;;;;;;;;;;;;;7.37;100.00;99536.69;5091688;28;851;-58
2023/03/22 05:31:23;;;;;;;;;;;;;;;7.40;100.00;99530.41;5073584;28;1199;-58
2023/03/22 05:33:50;;;;;;;;;;;;;;;7.44;100.00;99544.19;5091816;28;816;-58
2023/03/22 05:36:22;;;;;;;;;;;;;;;7.51;100.00;99545.00;5091565;28;835;-59
2023/03/22 05:38:49;;;;;;;;;;;;;;;7.60;100.00;99549.34;5091594;28;839;-58
2023/03/22 05:41:16;;;;;;;;;;;;;;;7.62;100.00;99553.28;5091548;28;982;-58
2023/03/22 05:43:43;;;;;;;;;;;;;;;7.59;100.00;99554.03;5091524;28;832;-58
2023/03/22 05:58:20;;;;;;;;;;;;;;;7.45;100.00;99548.50;5091635;28;1882;-57
2023/03/22 06:00:48;;;;;;;;;;;;;;;7.53;100.00;99553.66;5091543;28;867;-57
2023/03/22 06:03:15;;;;;;;;;;;;;;;7.60;100.00;99552.88;5091324;28;891;-58
2023/03/22 06:05:42;;;;;;;;;;;;;;;7.59;100.00;99556.00;5091372;28;882;-58
2023/03/22 06:08:08;;;;;;;;;;;;;;;7.67;100.00;99563.13;5091245;28;1330;-58
2023/03/22 06:10:35;;;;;;;;;;;;;;;7.70;100.00;99571.38;5092619;28;1226;-58
2023/03/22 06:13:02;;;;;;;;;;;;;;;7.80;100.00;99578.09;5095234;28;864;-58
2023/03/22 06:15:28;;;;;;;;;;;;;;;7.81;100.00;99584.38;5095276;28;847;-58
2023/03/22 06:17:55;;;;;;;;;;;;;;;7.81;100.00;99585.19;5095060;28;1906;-58
2023/03/22 06:20:21;;;;;;;;;;;;;;;7.82;100.00;99577.69;5095128;28;867;-58
2023/03/22 06:22:48;;;;;;;;;;;;;;;7.75;100.00;99583.97;5095009;28;862;-59
2023/03/22 06:25:14;;;;;;;;;;;;;;;7.75;100.00;99592.22;5095086;28;911;-59
2023/03/22 06:27:41;;;;;;;;;;;;;;;7.90;100.00;99582.84;5095234;28;851;-59
2023/03/22 06:30:08;;;;;;;;;;;;;;;8.23;100.00;99585.63;5095207;28;837;-59
2023/03/22 06:32:35;;;;;;;;;;;;;;;8.54;100.00;99595.91;5095031;28;875;-59
2023/03/22 06:35:01;;;;;;;;;;;;;;;8.84;100.00;99596.69;5094943;28;887;-59
2023/03/22 06:37:27;;;;;;;;;;;;;;;8.99;100.00;99601.78;5076685;28;1944;-59
2023/03/22 06:39:54;;;;;;;;;;;;;;;9.12;100.00;99599.38;5095298;28;899;-59
2023/03/22 06:42:21;;;;;;;;;;;;;;;9.30;100.00;99607.63;5095294;28;854;-59
2023/03/22 06:44:48;;;;;;;;;;;;;;;9.42;100.00;99616.66;5094933;28;871;-59
2023/03/22 06:47:14;;;;;;;;;;;;;;;9.56;100.00;99614.63;5095086;28;791;-59
2023/03/22 06:49:44;;;;;;;;;;;;;;;9.89;100.00;99617.25;5095011;28;812;-59
2023/03/22 06:52:11;;;;;;;;;;;;;;;10.06;100.00;99623.84;5094544;28;816;-59
2023/03/22 06:54:37;;;;;;;;;;;;;;;10.24;100.00;99630.03;5094832;28;796;-59
2023/03/22 06:57:04;;;;;;;;;;;;;;;10.58;100.00;99638.53;5094535;28;1886;-59
2023/03/22 06:59:33;;;;;;;;;;;;;;;10.70;100.00;99637.25;5094590;28;832;-59
2023/03/22 07:01:59;;;;;;;;;;;;;;;10.71;100.00;99638.03;5094416;28;824;-59
2023/03/22 07:04:26;;;;;;;;;;;;;;;10.68;100.00;99638.84;5094365;28;864;-59
2023/03/22 07:06:53;;;;;;;;;;;;;;;10.74;100.00;99640.78;5094192;28;856;-59
2023/03/22 07:09:22;;;;;;;;;;;;;;;10.82;100.00;99638.75;5094583;28;1023;-59
2023/03/22 07:11:49;;;;;;;;;;;;;;;11.04;100.00;99639.34;5093959;28;1286;-59
2023/03/22 07:14:16;;;;;;;;;;;;;;;11.19;100.00;99643.53;5094156;28;879;-59
2023/03/22 07:16:42;;;;;;;;;;;;;;;11.16;100.00;99646.31;5094020;28;1909;-59
2023/03/22 07:19:09;;;;;;;;;;;;;;;10.97;100.00;99642.19;5093948;28;915;-59
2023/03/22 07:21:35;;;;;;;;;;;;;;;10.77;100.00;99639.16;5092942;28;811;-59
2023/03/22 07:24:02;;;;;;;;;;;;;;;10.65;100.00;99643.22;5093863;28;879;-58
2023/03/22 07:26:31;;;;;;;;;;;;;;;10.48;100.00;99652.44;5093935;28;847;-58
2023/03/22 07:29:00;;;;;;;;;;;;;;;10.38;100.00;99662.34;5091839;28;1607;-58
2023/03/22 07:31:28;;;;;;;;;;;;;;;10.17;100.00;99666.00;5093854;28;835;-58
2023/03/22 07:33:54;;;;;;;;;;;;;;;10.04;100.00;99664.91;5075578;28;876;-58
2023/03/22 07:36:22;;;;;;;;;;;;;;;9.95;100.00;99665.34;5093721;28;906;-58
2023/03/22 07:38:49;;;;;;;;;;;;;;;10.04;100.00;99668.44;5093580;28;1952;-58
2023/03/22 07:41:16;;;;;;;;;;;;;;;10.16;100.00;99662.47;5093647;28;903;-57
2023/03/22 07:43:43;;;;;;;;;;;;;;;10.28;100.00;99668.69;5093674;28;812;-58
2023/03/22 07:46:13;;;;;;;;;;;;;;;10.45;100.00;99670.59;5093537;28;902;-58
2023/03/22 07:48:40;;;;;;;;;;;;;;;10.59;100.00;99667.75;5093336;28;899;-58
2023/03/22 07:51:07;;;;;;;;;;;;;;;10.73;100.00;99674.34;5093749;28;812;-58
2023/03/22 07:53:35;;;;;;;;;;;;;;;10.67;100.00;99675.97;5093386;28;836;-58
2023/03/22 07:56:03;;;;;;;;;;;;;;;10.58;100.00;99685.53;5093267;28;832;-58
2023/03/22 07:58:30;;;;;;;;;;;;;;;10.56;100.00;99685.16;5093192;28;1882;-58
2023/03/22 08:00:59;;;;;;;;;;;;;;;10.40;100.00;99690.38;5093189;28;858;-58
2023/03/22 08:03:26;;;;;;;;;;;;;;;10.01;100.00;99703.16;5093239;28;922;-58
2023/03/22 08:05:52;;;;;;;;;;;;;;;9.87;100.00;99697.69;5093031;28;1038;-58
2023/03/22 08:08:19;;;;;;;;;;;;;;;9.86;100.00;99703.59;5093169;28;1029;-58
2023/03/22 08:10:50;;;;;;;;;;;;;;;9.79;100.00;99696.13;5071328;28;1276;-58
2023/03/22 08:13:17;;;;;;;;;;;;;;;9.74;100.00;99704.84;5071376;28;1297;-59
2023/03/22 08:15:43;;;;;;;;;;;;;;;9.69;100.00;99699.75;5072978;28;812;-58
2023/03/22 08:18:09;;;;;;;;;;;;;;;9.72;100.00;99701.69;5072503;28;1909;-58
2023/03/22 08:20:36;;;;;;;;;;;;;;;9.81;100.00;99699.28;5072528;28;875;-58
2023/03/22 08:23:03;;;;;;;;;;;;;;;9.82;100.00;99706.41;5072581;28;891;-58
2023/03/22 08:25:30;;;;;;;;;;;;;;;9.82;100.00;99703.63;5072464;28;864;-58
2023/03/22 08:27:56;;;;;;;;;;;;;;;9.82;100.00;99703.63;5072515;28;800;-58
2023/03/22 08:30:23;;;;;;;;;;;;;;;9.83;100.00;99696.91;5072425;28;832;-58
2023/03/22 08:32:49;;;;;;;;;;;;;;;9.77;100.00;99702.09;5072093;28;941;-58
2023/03/22 08:35:15;;;;;;;;;;;;;;;9.64;100.00;99698.16;5072321;28;874;-58
2023/03/22 08:37:42;;;;;;;;;;;;;;;9.63;100.00;99693.06;5072226;28;1981;-58
2023/03/22 08:40:10;;;;;;;;;;;;;;;9.83;100.00;99696.91;5072245;28;878;-58
2023/03/22 08:42:36;;;;;;;;;;;;;;;10.06;100.00;99699.19;5072213;28;816;-58
2023/03/22 08:45:03;;;;;;;;;;;;;;;10.19;100.00;99696.78;5072195;28;820;-58
2023/03/22 08:47:31;;;;;;;;;;;;;;;10.18;100.00;99692.44;5071929;28;875;-58
2023/03/22 08:49:58;;;;;;;;;;;;;;;10.18;100.00;99701.50;5072090;28;811;-58
2023/03/22 08:52:25;;;;;;;;;;;;;;;10.09;100.00;99703.13;5072023;28;836;-58
2023/03/22 08:54:52;;;;;;;;;;;;;;;9.89;100.00;99706.38;5071963;28;824;-58
2023/03/22 08:57:20;;;;;;;;;;;;;;;9.80;100.00;99711.53;5070641;28;1885;-58
2023/03/22 08:59:48;;;;;;;;;;;;;;;9.66;100.00;99719.84;5070532;28;1210;-58
2023/03/22 09:02:15;;;;;;;;;;;;;;;9.53;100.00;99714.75;5071861;28;843;-58
2023/03/22 09:04:41;;;;;;;;;;;;;;;9.54;100.00;99716.34;5071739;28;891;-58
2023/03/22 09:07:07;;;;;;;;;;;;;;;9.55;100.00;99719.88;5071779;28;907;-58
2023/03/22 09:09:33;;;;;;;;;;;;;;;9.59;100.00;99721.44;5072059;28;902;-58
2023/03/22 09:12:00;;;;;;;;;;;;;;;9.64;100.00;99727.72;5091268;28;1459;-58
2023/03/22 09:14:26;;;;;;;;;;;;;;;9.72;100.00;99729.28;5091902;28;879;-58
2023/03/22 09:16:53;;;;;;;;;;;;;;;9.86;100.00;99725.69;5091703;28;1913;-58
2023/03/22 09:19:20;;;;;;;;;;;;;;;10.03;100.00;99716.59;5091808;28;800;-58
2023/03/22 09:21:46;;;;;;;;;;;;;;;10.36;100.00;99720.00;5073671;28;1323;-58
2023/03/22 09:24:13;;;;;;;;;;;;;;;10.46;100.00;99726.66;5091815;28;816;-58
2023/03/22 09:26:40;;;;;;;;;;;;;;;10.42;100.00;99724.69;5091775;28;874;-58
2023/03/22 09:29:06;;;;;;;;;;;;;;;10.32;100.00;99722.00;5091748;28;871;-58
2023/03/22 09:31:34;;;;;;;;;;;;;;;10.33;100.00;99726.34;5091612;28;867;-58
2023/03/22 09:33:59;;;;;;;;;;;;;;;10.34;100.00;99723.16;5091630;28;844;-58
2023/03/22 09:36:26;;;;;;;;;;;;;;;10.34;100.00;99720.38;5091870;28;804;-58
2023/03/22 09:38:52;;;;;;;;;;;;;;;10.26;100.00;99724.34;5091494;28;1951;-58
2023/03/22 10:09:53;;;;;;;;;;;;;;;9.39;100.00;99728.59;5528192;22;1785;-57
2023/03/22 10:12:33;;;;;;;;;;;;;;;9.40;100.00;99724.63;5073191;28;1195;-57
2023/03/22 10:15:11;;;;;;;;;;;;;;;9.49;100.00;99726.97;5091312;28;881;-57
2023/03/22 10:17:41;;;;;;;;;;;;;;;9.59;100.00;99723.41;5091224;28;1980;-59
2023/03/22 10:20:17;;;;;;;;;;;;;;;9.68;100.00;99734.03;5091391;28;925;-58
2023/03/22 10:22:45;;;;;;;;;;;;;;;9.90;100.00;99730.03;5091222;28;831;-57
2023/03/22 10:25:16;;;;;;;;;;;;;;;10.23;100.00;99736.22;5091130;28;916;-58
2023/03/22 10:27:43;;;;;;;;;;;;;;;10.22;100.00;99740.97;5091305;28;835;-57
2023/03/22 10:30:30;;;;;;;;;;;;;;;10.33;100.00;99735.41;5091315;28;827;-59
2023/03/22 10:33:00;;;;;;;;;;;;;;;10.39;100.00;99724.69;5090983;28;1551;-56
2023/03/22 10:35:27;;;;;;;;;;;;;;;10.30;100.00;99725.16;5091338;28;835;-57
2023/03/22 10:37:55;;;;;;;;;;;;;;;10.60;100.00;99718.28;5090998;28;1889;-59
2023/03/22 10:40:29;;;;;;;;;;;;;;;11.23;100.00;99709.91;5090948;28;847;-59
2023/03/22 10:42:58;;;;;;;;;;;;;;;11.79;100.00;99713.28;5091048;28;827;-59
2023/03/22 10:45:25;;;;;;;;;;;;;;;12.14;100.00;99705.78;5090939;28;890;-59
2023/03/22 10:48:13;;;;;;;;;;;;;;;12.35;100.00;99710.22;5090975;28;807;-59
2023/03/22 10:50:42;;;;;;;;;;;;;;;12.47;100.00;99706.13;5090950;28;882;-56
2023/03/22 10:53:20;;;;;;;;;;;;;;;12.80;100.00;99703.66;5091026;28;823;-59
2023/03/22 10:55:47;;;;;;;;;;;;;;;13.12;100.00;99700.38;5090922;28;867;-59
2023/03/22 10:58:15;;;;;;;;;;;;;;;12.86;100.00;99699.97;5094416;28;1889;-57
2023/03/22 11:00:45;;;;;;;;;;;;;;;12.51;100.00;99695.00;5094724;28;858;-59
2023/03/22 11:03:36;;;;;;;;;;;;;;;11.90;100.00;99688.25;5094497;28;815;-59
2023/03/22 11:06:09;;;;;;;;;;;;;;;11.51;100.00;99689.47;5094433;28;851;-58
2023/03/22 11:08:46;;;;;;;;;;;;;;;11.41;100.00;99684.81;5094316;28;907;-58
2023/03/22 11:11:15;;;;;;;;;;;;;;;11.33;100.00;99689.66;5094331;28;1286;-59
2023/03/22 11:13:42;;;;;;;;;;;;;;;11.24;100.00;99681.84;5094296;28;871;-59
2023/03/22 11:16:09;;;;;;;;;;;;;;;11.37;100.00;99676.56;5094144;28;811;-59
2023/03/22 11:18:36;;;;;;;;;;;;;;;11.49;100.00;99677.22;5094135;28;1921;-59
2023/03/22 11:21:19;;;;;;;;;;;;;;;11.71;100.00;99677.78;5093994;28;898;-59
2023/03/22 11:23:54;;;;;;;;;;;;;;;12.07;100.00;99674.59;5075861;28;1215;-59
2023/03/22 11:26:29;;;;;;;;;;;;;;;12.33;100.00;99670.28;5094044;28;815;-59
2023/03/22 11:29:01;;;;;;;;;;;;;;;12.68;100.00;99668.97;5075700;28;877;-56
2023/03/22 11:31:47;;;;;;;;;;;;;;;12.60;100.00;99662.75;5093847;28;804;-59
2023/03/22 11:34:20;;;;;;;;;;;;;;;12.16;100.00;99670.13;5093753;28;819;-59
2023/03/22 11:36:53;;;;;;;;;;;;;;;11.78;100.00;99664.63;5093777;28;1881;-59
2023/03/22 11:39:21;;;;;;;;;;;;;;;11.46;100.00;99656.72;5093581;28;858;-59
2023/03/22 11:41:49;;;;;;;;;;;;;;;11.24;100.00;99661.66;5093636;28;816;-59
2023/03/22 11:44:17;;;;;;;;;;;;;;;11.06;100.00;99659.06;5093615;28;883;-58
2023/03/22 11:46:59;;;;;;;;;;;;;;;11.09;100.00;99658.25;5093511;28;843;-59
2023/03/22 11:49:31;;;;;;;;;;;;;;;10.91;100.00;99658.41;5093559;28;804;-58
2023/03/22 11:52:06;;;;;;;;;;;;;;;10.60;100.00;99668.53;5093437;28;855;-58
2023/03/22 11:54:38;;;;;;;;;;;;;;;10.43;100.00;99661.91;5093429;28;894;-59
2023/03/22 11:57:10;;;;;;;;;;;;;;;10.28;100.00;99669.47;5093413;28;1885;-59
2023/03/22 11:59:39;;;;;;;;;;;;;;;10.17;100.00;99668.75;5093643;28;803;-59
2023/03/22 12:02:06;;;;;;;;;;;;;;;10.21;100.00;99661.25;5075082;28;1309;-58
2023/03/22 12:04:36;;;;;;;;;;;;;;;10.30;100.00;99663.59;5093336;28;815;-59
2023/03/22 12:07:08;;;;;;;;;;;;;;;10.47;100.00;99664.66;5093066;28;901;-59
2023/03/22 12:09:38;;;;;;;;;;;;;;;10.54;100.00;99662.66;5092214;28;1395;-59
2023/03/22 12:12:05;;;;;;;;;;;;;;;10.70;100.00;99664.13;5093023;28;858;-59
2023/03/22 12:14:38;;;;;;;;;;;;;;;10.79;100.00;99665.22;5093065;28;807;-59
2023/03/22 12:17:17;;;;;;;;;;;;;;;10.79;100.00;99656.91;5074818;28;1977;-59
2023/03/22 12:20:10;;;;;;;;;;;;;;;10.74;100.00;99657.38;5074814;28;894;-59
2023/03/22 12:22:42;;;;;;;;;;;;;;;10.79;100.00;99650.59;5062190;28;1328;-58
2023/03/22 12:25:14;;;;;;;;;;;;;;;10.63;100.00;99659.44;5092807;28;893;-57
2023/03/22 12:27:45;;;;;;;;;;;;;;;10.48;100.00;99663.50;5092863;28;834;-59
2023/03/22 12:30:17;;;;;;;;;;;;;;;10.54;100.00;99661.84;5092938;28;823;-57
2023/03/22 12:32:48;;;;;;;;;;;;;;;10.42;100.00;99652.84;5092708;28;925;-59
2023/03/22 12:35:20;;;;;;;;;;;;;;;10.40;100.00;99657.22;5092958;28;851;-58
2023/03/22 12:37:50;;;;;;;;;;;;;;;10.27;100.00;99656.88;5074175;28;1894;-59
2023/03/22 12:40:15;;;;;;;;;;;;;;;10.43;100.00;99650.88;5092492;28;872;-59
2023/03/22 12:42:45;;;;;;;;;;;;;;;10.35;100.00;99658.44;5092514;28;807;-59
2023/03/22 12:45:17;;;;;;;;;;;;;;;10.27;100.00;99656.88;5092488;28;870;-59
2023/03/22 12:47:48;;;;;;;;;;;;;;;10.18;100.00;99662.84;5092642;28;812;-59
2023/03/22 12:50:19;;;;;;;;;;;;;;;10.11;100.00;99662.09;5092998;28;843;-59
2023/03/22 12:52:49;;;;;;;;;;;;;;;10.19;100.00;99663.63;5092274;28;824;-59
2023/03/22 12:55:29;;;;;;;;;;;;;;;10.31;100.00;99665.19;5092173;28;855;-59
2023/03/22 12:57:56;;;;;;;;;;;;;;;10.31;100.00;99662.41;5092126;28;1882;-59
2023/03/22 13:00:37;;;;;;;;;;;;;;;10.36;100.00;99673.81;5092092;28;862;-59
2023/03/22 13:03:07;;;;;;;;;;;;;;;10.39;100.00;99670.25;5092420;28;851;-59
2023/03/22 13:05:35;;;;;;;;;;;;;;;10.47;100.00;99670.97;5073679;28;1339;-59
2023/03/22 13:08:04;;;;;;;;;;;;;;;10.32;100.00;99664.75;5092073;28;1105;-59
2023/03/22 13:10:31;;;;;;;;;;;;;;;10.28;100.00;99671.47;5091706;28;1352;-59
2023/03/22 13:13:18;;;;;;;;;;;;;;;10.23;100.00;99665.19;5092134;28;832;-59
2023/03/22 13:16:03;;;;;;;;;;;;;;;10.35;100.00;99669.50;5077311;28;1187;-59
2023/03/22 13:18:39;;;;;;;;;;;;;;;10.22;100.00;99660.84;5091833;28;1963;-59
2023/03/22 13:21:16;;;;;;;;;;;;;;;10.04;100.00;99670.41;5090938;28;886;-59
2023/03/22 13:24:01;;;;;;;;;;;;;;;9.96;100.00;99667.69;5091776;28;835;-59
2023/03/22 13:26:36;;;;;;;;;;;;;;;9.85;100.00;99666.94;5092099;28;807;-59
2023/03/22 13:29:19;;;;;;;;;;;;;;;9.87;100.00;99666.56;5091734;28;815;-59
2023/03/22 13:31:53;;;;;;;;;;;;;;;9.96;100.00;99666.88;5091727;28;866;-59
2023/03/22 13:34:41;;;;;;;;;;;;;;;9.96;100.00;99662.19;5091652;28;815;-60
2023/03/22 13:37:09;;;;;;;;;;;;;;;9.92;100.00;99663.34;5091298;28;1885;-60
2023/03/22 13:39:38;;;;;;;;;;;;;;;10.10;100.00;99663.28;5091996;28;776;-60
2023/03/22 13:42:13;;;;;;;;;;;;;;;10.21;100.00;99661.25;5091685;28;840;-60
2023/03/22 13:44:45;;;;;;;;;;;;;;;10.37;100.00;99660.78;5091880;28;811;-59
2023/03/22 13:47:41;;;;;;;;;;;;;;;10.52;100.00;99656.75;5091553;28;887;-59
2023/03/22 13:50:11;;;;;;;;;;;;;;;10.82;100.00;99656.13;5074317;28;1199;-59
2023/03/22 13:52:43;;;;;;;;;;;;;;;11.02;100.00;99661.09;5091464;28;899;-60
2023/03/22 13:55:33;;;;;;;;;;;;;;;10.85;100.00;99656.50;5073325;28;1227;-60